Time;durP1;ratioP1;P1;durP2;ratioP2;P2;SDS_P1;SDS_P2;PMS_P1;PMS_P2;Temp;Humidity;BMP_temperature;BMP_pressure;BME280_temperature;BME280_humidity;BME280_pressure;Samples;Min_cycle;Max_cycle;Signal;HPM_P1;HPM_P2
2021/12/12 00:02:24;;;;;;;12.38;6.63;;;2.10;99.90;;;;;;5030702;28;20526;-71
2021/12/12 00:05:36;;;;;;;13.18;6.68;;;2.10;99.90;;;;;;5032042;28;20624;-71
2021/12/12 00:08:43;;;;;;;13.65;5.80;;;2.10;99.90;;;;;;5030621;28;20056;-71
2021/12/12 00:11:47;;;;;;;12.95;6.55;;;2.10;99.90;;;;;;5032899;28;20048;-71
2021/12/12 00:14:52;;;;;;;14.98;7.82;;;2.10;99.90;;;;;;5030835;28;20045;-71
2021/12/12 00:17:56;;;;;;;13.13;6.72;;;2.10;99.90;;;;;;5030564;28;20045;-71
2021/12/12 00:21:01;;;;;;;13.57;6.57;;;2.20;99.90;;;;;;5032570;28;20404;-71
2021/12/12 00:24:08;;;;;;;18.52;6.68;;;2.20;99.90;;;;;;5032364;28;20057;-71
2021/12/12 00:27:14;;;;;;;13.45;6.20;;;2.20;99.90;;;;;;5026700;28;20079;-71
2021/12/12 00:30:18;;;;;;;11.55;6.47;;;2.30;99.90;;;;;;5030779;28;20052;-71
2021/12/12 00:33:22;;;;;;;11.32;5.28;;;2.20;99.90;;;;;;5032464;28;20534;-71
2021/12/12 00:36:29;;;;;;;11.23;5.40;;;2.20;99.90;;;;;;5028566;28;20052;-71
2021/12/12 00:39:35;;;;;;;10.57;5.30;;;2.10;99.90;;;;;;5030319;28;20036;-71
2021/12/12 00:42:39;;;;;;;11.50;4.97;;;2.10;99.90;;;;;;5032063;28;20057;-71
2021/12/12 00:45:43;;;;;;;13.57;5.00;;;2.10;99.90;;;;;;5031094;28;20510;-71
2021/12/12 00:48:47;;;;;;;8.95;4.97;;;2.10;99.90;;;;;;5029444;28;20056;-71
2021/12/12 00:51:52;;;;;;;8.38;4.70;;;2.20;99.90;;;;;;5031711;28;20045;-71
2021/12/12 00:54:56;;;;;;;14.13;4.90;;;2.10;99.90;;;;;;5031728;28;20049;-71
2021/12/12 00:58:00;;;;;;;10.73;4.40;;;2.10;99.90;;;;;;5030068;28;20506;-71
2021/12/12 01:01:19;;;;;;;11.40;5.25;;;2.20;99.90;;;;;;5031607;28;20064;-71
2021/12/12 01:04:34;;;;;;;12.80;6.15;;;2.20;99.90;;;;;;5025694;28;20040;-71
2021/12/12 01:07:41;;;;;;;36.28;18.17;;;2.20;99.90;;;;;;5027129;28;20392;-71
2021/12/12 01:11:20;;;;;;;6.85;3.90;;;2.30;99.90;;;;;;5029292;28;20492;-71
2021/12/12 01:14:30;;;;;;;44.63;24.48;;;2.40;99.90;;;;;;5031458;28;20393;-70
2021/12/12 01:17:40;;;;;;;8.90;5.03;;;2.30;99.90;;;;;;5030035;28;20133;-71
2021/12/12 01:21:01;;;;;;;14.77;7.95;;;2.30;99.90;;;;;;5027527;28;20044;-71
2021/12/12 01:24:12;;;;;;;13.10;8.35;;;2.20;99.90;;;;;;5031279;28;20508;-71
2021/12/12 01:27:18;;;;;;;11.27;4.82;;;2.20;99.90;;;;;;5031543;28;20052;-71
2021/12/12 01:30:23;;;;;;;20.23;10.98;;;2.10;99.90;;;;;;5029735;28;20056;-70
2021/12/12 01:33:35;;;;;;;15.90;8.75;;;2.20;99.90;;;;;;5030015;28;20053;-71
2021/12/12 01:40:26;;;;;;;20.52;6.68;;;2.10;99.90;;;;;;5030312;28;20045;-71
2021/12/12 01:43:40;;;;;;;11.63;6.95;;;2.10;99.90;;;;;;5027812;28;20543;-70
2021/12/12 01:46:59;;;;;;;13.68;7.35;;;2.10;99.90;;;;;;5030292;28;20049;-71
2021/12/12 01:50:21;;;;;;;7.85;4.80;;;2.00;99.90;;;;;;5030423;28;20048;-70
2021/12/12 01:53:30;;;;;;;30.02;6.38;;;2.00;99.90;;;;;;5027898;28;20392;-70
2021/12/12 01:56:53;;;;;;;16.42;5.50;;;2.10;99.90;;;;;;5030281;28;20072;-70
2021/12/12 02:00:00;;;;;;;9.90;5.05;;;2.10;99.90;;;;;;5028927;28;20045;-71
2021/12/12 02:03:08;;;;;;;7.25;3.97;;;2.00;99.90;;;;;;5030611;28;20044;-71
2021/12/12 02:06:16;;;;;;;11.18;4.90;;;2.00;99.90;;;;;;5030369;28;20052;-71
2021/12/12 02:09:22;;;;;;;9.77;5.07;;;2.00;99.90;;;;;;5023435;28;20124;-71
2021/12/12 02:12:26;;;;;;;18.40;5.85;;;2.00;99.90;;;;;;5028339;28;20187;-71
2021/12/12 02:15:34;;;;;;;10.57;4.63;;;1.90;99.90;;;;;;5029945;28;20052;-71
2021/12/12 02:18:47;;;;;;;8.15;4.60;;;1.90;99.90;;;;;;5032181;28;20040;-71
2021/12/12 02:22:26;;;;;;;9.18;4.60;;;1.90;99.90;;;;;;5028658;28;20041;-71
2021/12/12 02:35:45;;;;;;;19.95;9.07;;;2.00;99.90;;;;;;5029276;28;20045;-70
2021/12/12 02:38:51;;;;;;;19.35;8.80;;;2.10;99.90;;;;;;5026991;28;20117;-71
2021/12/12 02:41:59;;;;;;;14.52;7.22;;;2.00;99.90;;;;;;5029475;28;20045;-70
2021/12/12 02:45:07;;;;;;;12.75;6.70;;;2.00;99.90;;;;;;5029529;28;20041;-71
2021/12/12 02:48:17;;;;;;;13.35;7.30;;;2.00;99.90;;;;;;5029635;28;20048;-71
2021/12/12 02:51:21;;;;;;;7.25;3.75;;;2.00;99.90;;;;;;5026147;28;20040;-70
2021/12/12 02:54:26;;;;;;;9.18;4.00;;;2.00;99.90;;;;;;5028181;28;20033;-71
2021/12/12 02:57:30;;;;;;;8.85;5.10;;;2.00;99.90;;;;;;5026802;28;20048;-70
2021/12/12 03:00:38;;;;;;;7.63;4.90;;;2.00;99.90;;;;;;5027984;28;20037;-71
2021/12/12 03:03:43;;;;;;;4.13;2.55;;;2.00;99.90;;;;;;5028652;28;20408;-71
2021/12/12 03:06:48;;;;;;;4.55;3.00;;;2.00;99.90;;;;;;5027517;28;20053;-71
2021/12/12 03:09:57;;;;;;;5.43;2.53;;;1.90;99.90;;;;;;5027420;28;20381;-71
2021/12/12 03:13:04;;;;;;;6.88;2.50;;;1.90;99.90;;;;;;5028817;28;20042;-71
2021/12/12 03:16:10;;;;;;;7.55;2.08;;;1.90;99.90;;;;;;5025643;28;20058;-71
2021/12/12 03:19:14;;;;;;;6.15;2.38;;;1.90;99.90;;;;;;5029831;28;20033;-71
2021/12/12 03:22:19;;;;;;;6.15;2.58;;;1.90;99.90;;;;;;5029296;28;20049;-71
2021/12/12 03:25:23;;;;;;;4.82;2.30;;;1.90;99.90;;;;;;5023009;28;20033;-71
2021/12/12 03:28:31;;;;;;;6.13;2.90;;;1.90;99.90;;;;;;5027840;28;20061;-71
2021/12/12 03:31:41;;;;;;;6.35;2.45;;;1.80;99.90;;;;;;5029411;28;20046;-71
2021/12/12 03:34:53;;;;;;;6.88;2.70;;;1.80;99.90;;;;;;5028800;28;20052;-71
2021/12/12 03:37:57;;;;;;;;;;;1.80;99.90;;;;;;5030735;28;20503;-71
2021/12/12 03:41:06;;;;;;;4.03;1.92;;;1.90;99.90;;;;;;5029309;28;19916;-71
2021/12/12 03:44:16;;;;;;;6.65;2.42;;;1.90;99.90;;;;;;5031292;28;20506;-71
2021/12/12 03:47:21;;;;;;;4.70;2.53;;;2.00;99.90;;;;;;5032921;28;20045;-71
2021/12/12 03:50:34;;;;;;;4.85;2.22;;;2.10;99.90;;;;;;5030452;28;20536;-71
2021/12/12 03:53:39;;;;;;;6.90;2.45;;;2.10;99.90;;;;;;5032149;28;20054;-71
2021/12/12 03:56:45;;;;;;;4.30;2.10;;;2.10;99.90;;;;;;5032187;28;20052;-71
2021/12/12 03:59:50;;;;;;;9.45;3.33;;;2.10;99.90;;;;;;5030190;28;20041;-71
2021/12/12 04:02:55;;;;;;;7.25;3.15;;;2.10;99.90;;;;;;5031999;28;20041;-70
2021/12/12 04:06:04;;;;;;;4.93;1.90;;;2.00;99.90;;;;;;5032059;28;20041;-71
2021/12/12 04:09:11;;;;;;;3.97;1.98;;;2.00;99.90;;;;;;5029605;28;20052;-71
2021/12/12 04:12:18;;;;;;;3.30;2.00;;;2.80;99.90;;;;;;5032218;28;20052;-71
2021/12/12 04:15:23;;;;;;;4.43;2.33;;;2.00;99.90;;;;;;5025870;28;20041;-71
2021/12/12 04:18:28;;;;;;;7.32;3.30;;;2.00;99.90;;;;;;5032222;28;20048;-71
2021/12/12 04:21:34;;;;;;;4.13;2.30;;;2.00;99.90;;;;;;5028122;28;20050;-71
2021/12/12 04:24:42;;;;;;;5.72;3.20;;;2.00;99.90;;;;;;5030456;28;20052;-71
2021/12/12 04:27:46;;;;;;;4.68;2.42;;;2.10;99.90;;;;;;5029655;28;20047;-70
2021/12/12 04:30:50;;;;;;;9.65;3.03;;;2.10;99.90;;;;;;5030614;28;20053;-70
2021/12/12 04:33:55;;;;;;;4.78;2.45;;;2.20;99.90;;;;;;5029883;28;20045;-71
2021/12/12 04:37:01;;;;;;;15.18;5.63;;;2.20;99.90;;;;;;5031906;28;20045;-71
2021/12/12 04:40:09;;;;;;;7.88;3.33;;;2.10;99.90;;;;;;5032352;28;20044;-71
2021/12/12 04:43:13;;;;;;;24.83;7.70;;;2.00;99.90;;;;;;5031747;28;20049;-71
2021/12/12 04:46:25;;;;;;;18.10;7.47;;;1.90;99.90;;;;;;5031658;28;20064;-71
2021/12/12 04:52:58;;;;;;;10.75;4.72;;;1.80;99.90;;;;;;5032105;28;20052;-71
2021/12/12 04:56:31;;;;;;;5.40;2.85;;;1.70;99.90;;;;;;5030033;28;20621;-71
2021/12/12 04:59:42;;;;;;;6.85;2.78;;;1.60;99.90;;;;;;5026403;28;20044;-71
2021/12/12 05:03:17;;;;;;;9.10;3.85;;;1.60;99.90;;;;;;5029067;28;20069;-71
2021/12/12 05:06:26;;;;;;;10.00;4.05;;;1.70;99.90;;;;;;5031401;28;20036;-71
2021/12/12 05:09:35;;;;;;;8.45;3.35;;;1.70;99.90;;;;;;5025119;28;20044;-71
2021/12/12 05:12:46;;;;;;;5.15;2.70;;;1.70;99.90;;;;;;5031358;28;20041;-71
2021/12/12 05:15:53;;;;;;;10.13;5.55;;;1.70;99.90;;;;;;5031473;28;20037;-71
2021/12/12 05:19:15;;;;;;;6.28;3.53;;;1.80;99.90;;;;;;5030346;28;20040;-71
2021/12/12 05:22:29;;;;;;;7.40;3.55;;;1.80;99.90;;;;;;5030720;28;20041;-71
2021/12/12 05:25:49;;;;;;;6.97;3.25;;;1.80;99.90;;;;;;5026933;28;20530;-71
2021/12/12 05:29:09;;;;;;;8.52;4.10;;;1.90;99.90;;;;;;5029182;28;20049;-71
2021/12/12 05:32:15;;;;;;;7.90;3.65;;;1.90;99.90;;;;;;5030301;28;20056;-71
2021/12/12 05:35:24;;;;;;;10.40;4.57;;;2.10;99.90;;;;;;5029788;28;20041;-71
2021/12/12 05:38:29;;;;;;;20.77;7.90;;;2.10;99.90;;;;;;5027365;28;20048;-71
2021/12/12 05:41:35;;;;;;;18.35;6.63;;;2.10;99.90;;;;;;5030452;28;20380;-71
2021/12/12 05:44:41;;;;;;;23.50;8.02;;;2.10;99.90;;;;;;5026528;28;20048;-71
2021/12/12 05:47:46;;;;;;;4.15;2.40;;;2.10;99.90;;;;;;5028007;28;20052;-71
2021/12/12 05:50:52;;;;;;;12.05;5.30;;;2.10;99.90;;;;;;5029190;28;20054;-71
2021/12/12 05:53:56;;;;;;;8.32;3.67;;;2.00;99.90;;;;;;5030074;28;20052;-71
2021/12/12 05:57:01;;;;;;;9.05;4.30;;;2.00;99.90;;;;;;5030802;28;20397;-71
2021/12/12 06:00:09;;;;;;;8.90;3.65;;;2.10;99.90;;;;;;5030022;28;20048;-71
2021/12/12 06:03:17;;;;;;;6.82;3.45;;;2.20;99.90;;;;;;5024751;28;20037;-71
2021/12/12 06:06:25;;;;;;;5.53;2.22;;;2.20;99.90;;;;;;5029941;28;20107;-71
2021/12/12 06:09:31;;;;;;;4.78;2.50;;;2.10;99.90;;;;;;5025072;28;20038;-71
2021/12/12 06:12:37;;;;;;;4.68;2.53;;;2.10;99.90;;;;;;5028588;28;20396;-71
2021/12/12 06:15:45;;;;;;;8.18;3.05;;;2.00;99.90;;;;;;5029765;28;20503;-71
2021/12/12 06:19:03;;;;;;;4.75;2.60;;;2.00;99.90;;;;;;5026233;28;20045;-71
2021/12/12 06:22:08;;;;;;;5.88;2.50;;;1.80;99.90;;;;;;5029954;28;20491;-71
2021/12/12 06:25:12;;;;;;;5.47;2.45;;;1.80;99.90;;;;;;5029752;28;20056;-71
2021/12/12 06:28:24;;;;;;;4.47;3.00;;;1.80;99.90;;;;;;5026273;28;20049;-71
2021/12/12 06:31:28;;;;;;;3.78;2.10;;;1.80;99.90;;;;;;5025699;28;20057;-71
2021/12/12 06:34:33;;;;;;;9.27;3.30;;;1.70;99.90;;;;;;5024417;28;20041;-71
2021/12/12 06:37:37;;;;;;;6.47;2.92;;;1.70;99.90;;;;;;5025378;28;20045;-71
2021/12/12 06:40:42;;;;;;;6.10;2.80;;;1.70;99.90;;;;;;5026887;28;20044;-71
2021/12/12 06:43:49;;;;;;;7.70;2.55;;;1.60;99.90;;;;;;5027818;28;20056;-71
2021/12/12 06:46:54;;;;;;;4.03;2.67;;;1.50;99.90;;;;;;5029472;28;20042;-71
2021/12/12 06:50:00;;;;;;;4.07;2.42;;;1.50;99.90;;;;;;5029677;28;20053;-71
2021/12/12 06:53:05;;;;;;;3.85;2.50;;;1.50;99.90;;;;;;5028968;28;20048;-71
2021/12/12 06:56:13;;;;;;;7.20;2.67;;;1.50;99.90;;;;;;5029445;28;20053;-71
2021/12/12 06:59:20;;;;;;;7.82;3.80;;;1.50;99.90;;;;;;5023075;28;20056;-71
2021/12/12 07:02:25;;;;;;;7.90;3.50;;;1.50;99.90;;;;;;5029630;28;20037;-71
2021/12/12 07:05:30;;;;;;;8.73;4.40;;;1.50;99.90;;;;;;5029270;28;20033;-71
2021/12/12 07:08:35;;;;;;;8.80;4.50;;;1.50;99.90;;;;;;5029253;28;20342;-71
2021/12/12 07:11:41;;;;;;;6.82;3.83;;;2.20;99.90;;;;;;5029657;28;20048;-72
2021/12/12 07:14:45;;;;;;;6.90;2.67;;;4.80;99.90;;;;;;5026176;28;20045;-72
2021/12/12 07:17:53;;;;;;;3.50;2.30;;;7.80;99.90;;;;;;5031198;28;20048;-72
2021/12/12 07:21:03;;;;;;;4.93;2.55;;;10.50;99.90;;;;;;5034111;28;20036;-72
2021/12/12 07:24:08;;;;;;;3.33;1.67;;;12.60;99.90;;;;;;5033413;28;20392;-72
2021/12/12 07:27:17;;;;;;;5.53;3.15;;;14.30;98.60;;;;;;5033640;28;20072;-72
2021/12/12 07:30:21;;;;;;;3.70;2.58;;;15.60;94.40;;;;;;5033201;28;20388;-72
2021/12/12 07:33:27;;;;;;;3.50;2.33;;;16.70;93.00;;;;;;5031817;28;20680;-72
2021/12/12 07:36:34;;;;;;;3.83;2.22;;;17.70;89.40;;;;;;5032756;28;20057;-72
2021/12/12 07:39:40;;;;;;;5.32;2.53;;;18.20;89.50;;;;;;5031998;28;20044;-72
2021/12/12 07:42:46;;;;;;;6.47;2.33;;;18.90;84.50;;;;;;5030626;28;20052;-73
2021/12/12 07:45:51;;;;;;;4.55;2.05;;;19.10;82.50;;;;;;5032804;28;20383;-72
2021/12/12 07:48:55;;;;;;;2.60;1.83;;;20.00;80.20;;;;;;5032771;28;20064;-72
2021/12/12 07:52:00;;;;;;;5.13;2.15;;;20.80;79.60;;;;;;5033111;28;20114;-70
2021/12/12 07:55:05;;;;;;;4.78;2.03;;;21.30;77.10;;;;;;5032941;28;20388;-72
2021/12/12 07:58:13;;;;;;;3.30;1.88;;;21.30;75.40;;;;;;5031840;28;20052;-72
2021/12/12 08:01:17;;;;;;;5.03;2.05;;;21.50;74.20;;;;;;5026868;28;20396;-72
2021/12/12 08:04:26;;;;;;;3.90;2.67;;;21.70;73.00;;;;;;5030621;28;20044;-72
2021/12/12 08:07:33;;;;;;;4.00;2.20;;;21.60;72.20;;;;;;5032884;28;20056;-72
2021/12/12 08:10:39;;;;;;;5.32;2.47;;;21.70;70.90;;;;;;5029175;28;20072;-72
2021/12/12 08:13:44;;;;;;;2.90;2.08;;;21.50;71.50;;;;;;5031268;28;20048;-72
2021/12/12 08:16:50;;;;;;;4.65;2.70;;;21.80;70.10;;;;;;5029748;28;20048;-72
2021/12/12 08:19:57;;;;;;;2.70;1.98;;;21.80;69.30;;;;;;5030631;28;20049;-72
2021/12/12 08:23:03;;;;;;;5.07;2.95;;;21.70;69.20;;;;;;5031490;28;20052;-72
2021/12/12 08:26:10;;;;;;;4.70;1.80;;;21.80;68.00;;;;;;5031950;28;20412;-72
2021/12/12 08:29:15;;;;;;;3.65;2.08;;;22.00;68.90;;;;;;5031263;28;20052;-72
2021/12/12 08:32:19;;;;;;;4.70;1.90;;;22.80;68.70;;;;;;5032114;28;20052;-70
2021/12/12 08:35:25;;;;;;;3.40;2.20;;;23.60;67.40;;;;;;5031195;28;20060;-70
2021/12/12 08:38:30;;;;;;;3.25;2.40;;;24.10;66.90;;;;;;5027960;28;20044;-70
2021/12/12 08:41:35;;;;;;;4.07;1.73;;;24.00;66.10;;;;;;5027796;28;20503;-71
2021/12/12 08:44:39;;;;;;;3.95;3.03;;;24.60;65.50;;;;;;5031300;28;20801;-70
2021/12/12 08:47:44;;;;;;;3.25;2.28;;;24.80;64.20;;;;;;5028882;28;20048;-70
2021/12/12 08:50:51;;;;;;;3.45;2.40;;;25.30;62.40;;;;;;5028604;28;20048;-70
2021/12/12 08:54:03;;;;;;;3.72;2.40;;;25.40;63.70;;;;;;5030960;28;20499;-70
2021/12/12 08:57:20;;;;;;;2.95;2.10;;;26.20;61.20;;;;;;5031135;28;20048;-70
2021/12/12 09:00:28;;;;;;;2.53;2.22;;;27.30;61.10;;;;;;5026486;28;20052;-71
2021/12/12 09:03:36;;;;;;;2.80;1.80;;;28.50;60.10;;;;;;5030096;28;20048;-71
2021/12/12 09:07:12;;;;;;;2.55;2.25;;;28.70;57.60;;;;;;5030862;28;20049;-71
2021/12/12 09:10:28;;;;;;;3.13;2.22;;;28.40;55.90;;;;;;5030355;28;20119;-70
2021/12/12 09:13:47;;;;;;;3.75;2.30;;;25.60;57.50;;;;;;5027101;28;20052;-71
2021/12/12 09:17:11;;;;;;;3.22;2.20;;;22.80;59.60;;;;;;5028965;28;20044;-71
2021/12/12 09:20:33;;;;;;;8.13;2.33;;;24.30;61.90;;;;;;5023979;28;20061;-72
2021/12/12 09:23:49;;;;;;;3.55;2.55;;;23.70;58.50;;;;;;5031383;28;20040;-71
2021/12/12 09:27:08;;;;;;;2.10;1.70;;;27.00;59.00;;;;;;5030457;28;20048;-73
2021/12/12 09:30:17;;;;;;;1.83;1.35;;;27.80;57.50;;;;;;5030055;28;20044;-71
2021/12/12 09:33:27;;;;;;;57.63;41.25;;;30.00;56.50;;;;;;5027112;28;20068;-70
2021/12/12 09:36:37;;;;;;;5.43;4.20;;;30.00;57.60;;;;;;5026112;28;20492;-72
2021/12/12 09:39:52;;;;;;;2.13;1.77;;;30.90;54.10;;;;;;5029707;28;20041;-73
2021/12/12 09:42:56;;;;;;;2.25;1.63;;;31.60;55.20;;;;;;5028795;28;20052;-72
2021/12/12 09:46:28;;;;;;;9.85;2.35;;;31.90;52.90;;;;;;5030022;28;20040;-72
2021/12/12 09:53:23;;;;;;;3.10;1.70;;;32.60;52.80;;;;;;5022822;28;20373;-71
2021/12/12 09:56:43;;;;;;;2.22;1.40;;;32.30;51.00;;;;;;5030374;28;20057;-72
2021/12/12 10:00:00;;;;;;;1.80;1.45;;;32.10;51.10;;;;;;5026643;28;20820;-72
2021/12/12 10:03:17;;;;;;;2.70;2.25;;;32.10;50.70;;;;;;5031298;28;20040;-72
2021/12/12 10:06:39;;;;;;;2.63;1.83;;;32.50;50.70;;;;;;5030793;28;20048;-72
2021/12/12 10:09:58;;;;;;;1.92;1.50;;;32.90;49.60;;;;;;5026041;28;20369;-72
2021/12/12 10:13:17;;;;;;;2.38;1.50;;;32.80;48.00;;;;;;5029652;28;20511;-72
2021/12/12 10:16:27;;;;;;;2.65;1.40;;;32.80;47.60;;;;;;5024564;28;20087;-72
2021/12/12 10:19:42;;;;;;;1.88;1.65;;;33.20;49.30;;;;;;5028026;28;20491;-72
2021/12/12 10:23:27;;;;;;;2.45;1.70;;;33.70;47.60;;;;;;5027221;28;20122;-72
2021/12/12 10:26:40;;;;;;;1.55;1.23;;;34.30;48.00;;;;;;5025931;28;20052;-72
2021/12/12 10:29:53;;;;;;;1.35;1.25;;;33.70;47.00;;;;;;5030009;28;20049;-73
2021/12/12 10:33:34;;;;;;;2.15;1.40;;;34.20;48.20;;;;;;5029816;28;20037;-70
2021/12/12 10:37:08;;;;;;;2.00;1.50;;;34.10;49.60;;;;;;5025862;28;20040;-73
2021/12/12 10:40:20;;;;;;;3.65;2.80;;;32.70;46.30;;;;;;5028789;28;20132;-73
2021/12/12 10:43:52;;;;;;;1.58;1.42;;;32.30;46.60;;;;;;5030343;28;20052;-73
2021/12/12 10:47:11;;;;;;;1.50;1.40;;;32.20;47.40;;;;;;5028780;28;20045;-72
2021/12/12 10:50:34;;;;;;;2.95;1.45;;;31.90;45.80;;;;;;5025739;28;20049;-71
2021/12/12 10:53:40;;;;;;;1.55;1.20;;;32.00;46.00;;;;;;5028784;28;20044;-71
2021/12/12 10:57:00;;;;;;;2.80;1.50;;;31.60;45.40;;;;;;5033511;28;20484;-72
2021/12/12 11:00:07;;;;;;;3.83;1.60;;;31.20;47.20;;;;;;5032832;28;20080;-72
2021/12/12 11:03:33;;;;;;;3.10;1.73;;;31.30;45.70;;;;;;5025764;28;20041;-72
2021/12/12 11:06:47;;;;;;;3.03;1.23;;;31.10;47.40;;;;;;5032294;28;20052;-72
2021/12/12 11:09:59;;;;;;;1.92;1.20;;;31.20;45.70;;;;;;5030952;28;20479;-72
2021/12/12 11:13:09;;;;;;;1.83;1.17;;;31.40;45.40;;;;;;5032301;28;20049;-72
2021/12/12 11:16:49;;;;;;;1.67;1.15;;;30.60;45.80;;;;;;5031441;28;20060;-71
2021/12/12 11:19:58;;;;;;;2.35;1.10;;;30.20;48.20;;;;;;5018792;28;20388;-72
2021/12/12 11:23:12;;;;;;;1.47;1.07;;;30.30;46.20;;;;;;5034112;28;20052;-72
2021/12/12 11:26:22;;;;;;;3.80;1.35;;;30.70;46.20;;;;;;5031344;28;21023;-72
2021/12/12 11:29:39;;;;;;;1.73;1.00;;;30.20;46.50;;;;;;5032798;28;20376;-72
2021/12/12 11:32:45;;;;;;;1.75;1.27;;;30.80;45.40;;;;;;5030179;28;20040;-71
2021/12/12 11:35:53;;;;;;;1.65;1.25;;;30.80;47.60;;;;;;5031773;28;20048;-72
2021/12/12 11:38:59;;;;;;;2.22;1.38;;;30.30;46.30;;;;;;5032291;28;20045;-72
2021/12/12 11:42:16;;;;;;;2.38;1.40;;;30.50;46.40;;;;;;5032656;28;20653;-72
2021/12/12 11:45:30;;;;;;;6.50;1.25;;;30.40;45.90;;;;;;5033406;28;20507;-72
2021/12/12 11:48:58;;;;;;;3.03;2.55;;;30.70;46.30;;;;;;5029423;28;20491;-71
2021/12/12 11:52:10;;;;;;;2.78;1.52;;;30.70;45.60;;;;;;5031480;28;20045;-73
2021/12/12 11:55:37;;;;;;;3.65;1.33;;;30.60;44.40;;;;;;5026734;28;20380;-73
2021/12/12 11:59:04;;;;;;;2.78;1.67;;;30.10;44.30;;;;;;5028736;28;20052;-72
2021/12/12 12:02:40;;;;;;;1.77;1.50;;;30.10;45.60;;;;;;5032480;28;20479;-72
2021/12/12 12:06:10;;;;;;;3.42;2.88;;;29.70;45.30;;;;;;5029108;28;20036;-72
2021/12/12 12:09:48;;;;;;;3.40;1.58;;;29.00;45.20;;;;;;5032233;28;20052;-72
2021/12/12 12:13:15;;;;;;;2.22;1.20;;;30.10;45.40;;;;;;5030402;28;20045;-72
2021/12/12 12:16:39;;;;;;;3.63;1.33;;;31.10;45.50;;;;;;5032194;28;20048;-72
2021/12/12 12:19:46;;;;;;;2.28;1.20;;;31.80;43.80;;;;;;5031074;28;20660;-72
2021/12/12 12:23:05;;;;;;;1.65;0.98;;;31.50;45.10;;;;;;5032268;28;20045;-73
2021/12/12 12:29:58;;;;;;;1.50;1.10;;;29.20;44.60;;;;;;5030749;28;20048;-72
2021/12/12 12:33:24;;;;;;;2.92;1.90;;;28.70;45.50;;;;;;5030216;28;20582;-72
2021/12/12 12:37:00;;;;;;;1.83;1.27;;;29.00;45.80;;;;;;5031819;28;20044;-72
2021/12/12 12:40:43;;;;;;;2.83;1.23;;;28.60;44.30;;;;;;5031507;28;20771;-72
2021/12/12 12:44:35;;;;;;;2.75;1.10;;;28.10;44.30;;;;;;5030525;28;20056;-72
2021/12/12 12:47:47;;;;;;;1.33;1.10;;;28.60;46.30;;;;;;5031904;28;20049;-72
2021/12/12 12:50:57;;;;;;;1.42;1.00;;;28.50;44.80;;;;;;5029763;28;20045;-72
2021/12/12 12:54:27;;;;;;;0.90;0.70;;;28.10;44.80;;;;;;5032363;28;20064;-72
2021/12/12 12:57:40;;;;;;;2.15;0.98;;;27.00;44.80;;;;;;5032037;28;20519;-72
2021/12/12 13:00:47;;;;;;;3.70;1.05;;;26.90;46.80;;;;;;5031329;28;20048;-71
2021/12/12 13:04:30;;;;;;;2.38;1.05;;;26.80;45.90;;;;;;5030747;28;20056;-72
2021/12/12 13:07:41;;;;;;;1.95;1.00;;;27.10;44.90;;;;;;5027771;28;20044;-72
2021/12/12 13:10:48;;;;;;;2.38;1.20;;;26.70;45.40;;;;;;5030969;28;20056;-72
2021/12/12 13:14:21;;;;;;;1.55;1.00;;;26.50;45.30;;;;;;5030921;28;20057;-71
2021/12/12 13:17:52;;;;;;;1.52;1.10;;;26.00;45.80;;;;;;5026222;28;20171;-71
2021/12/12 13:21:03;;;;;;;1.52;0.90;;;25.80;45.30;;;;;;5029361;28;20116;-71
2021/12/12 13:24:15;;;;;;;1.10;1.00;;;25.60;46.40;;;;;;5031550;28;20060;-71
2021/12/12 13:28:07;;;;;;;2.20;1.10;;;25.80;45.90;;;;;;5031164;28;20558;-72
2021/12/12 13:31:20;;;;;;;1.53;1.10;;;25.80;46.00;;;;;;5030879;28;20048;-71
2021/12/12 13:34:49;;;;;;;5.18;1.38;;;26.10;46.10;;;;;;5030890;28;20278;-72
2021/12/12 13:38:10;;;;;;;2.45;1.48;;;25.70;47.00;;;;;;5029196;28;20052;-72
2021/12/12 13:41:49;;;;;;;4.30;1.40;;;25.00;46.50;;;;;;5030937;28;20052;-71
2021/12/12 13:45:06;;;;;;;2.17;1.23;;;24.50;46.80;;;;;;5028171;28;20052;-72
2021/12/12 13:48:28;;;;;;;2.83;1.50;;;24.60;48.10;;;;;;5022444;28;20061;-72
2021/12/12 13:51:57;;;;;;;2.20;1.73;;;25.00;48.10;;;;;;5026901;28;20044;-71
2021/12/12 13:55:09;;;;;;;1.42;1.08;;;25.00;47.80;;;;;;5030532;28;20480;-71
2021/12/12 13:58:19;;;;;;;1.50;0.95;;;24.20;46.70;;;;;;5030028;28;20051;-71
2021/12/12 14:01:36;;;;;;;2.50;1.35;;;23.50;47.00;;;;;;5030670;28;20384;-71
2021/12/12 14:05:06;;;;;;;1.73;1.15;;;23.00;48.70;;;;;;5027224;28;20487;-71
2021/12/12 14:08:14;;;;;;;2.33;1.27;;;22.20;48.30;;;;;;5031562;28;20045;-71
2021/12/12 14:11:28;;;;;;;1.67;1.08;;;21.60;48.90;;;;;;5022601;28;20060;-71
2021/12/12 14:14:55;;;;;;;2.70;1.33;;;20.40;49.40;;;;;;5029868;28;20404;-71
2021/12/12 14:18:02;;;;;;;2.67;1.27;;;20.30;50.30;;;;;;5029340;28;20069;-71
2021/12/12 14:21:07;;;;;;;2.88;1.70;;;20.00;50.70;;;;;;5018005;28;20475;-72
2021/12/12 14:24:13;;;;;;;4.38;1.38;;;20.60;49.70;;;;;;5024245;28;20068;-71
2021/12/12 14:27:20;;;;;;;4.55;2.88;;;20.50;49.90;;;;;;5022307;28;20044;-71
2021/12/12 14:30:28;;;;;;;5.43;3.38;;;20.00;50.40;;;;;;5026716;28;20040;-71
2021/12/12 14:33:42;;;;;;;4.60;2.47;;;20.00;50.50;;;;;;5027658;28;20045;-72
2021/12/12 14:36:49;;;;;;;2.20;1.65;;;20.20;50.60;;;;;;5026835;28;20041;-72
2021/12/12 14:39:58;;;;;;;6.65;1.50;;;20.20;50.30;;;;;;5029667;28;20056;-72
2021/12/12 14:43:10;;;;;;;2.88;1.48;;;20.20;52.00;;;;;;5029290;28;20060;-72
2021/12/12 14:46:17;;;;;;;2.50;1.20;;;20.10;51.30;;;;;;5030271;28;20083;-72
2021/12/12 14:49:38;;;;;;;2.40;1.30;;;20.00;50.50;;;;;;5029710;28;20048;-72
2021/12/12 14:52:45;;;;;;;2.42;1.52;;;19.90;50.50;;;;;;5030183;28;20124;-72
2021/12/12 14:55:56;;;;;;;2.30;1.70;;;19.80;51.00;;;;;;5029364;28;20056;-72
2021/12/12 14:59:04;;;;;;;3.55;2.10;;;19.80;51.20;;;;;;5030092;28;20052;-72
2021/12/12 15:02:18;;;;;;;3.95;1.80;;;19.70;52.50;;;;;;5030312;28;20052;-72
2021/12/12 15:05:28;;;;;;;4.65;1.50;;;19.30;51.90;;;;;;5023813;28;20041;-72
2021/12/12 15:08:43;;;;;;;4.15;2.72;;;18.60;53.00;;;;;;5029143;28;20048;-72
2021/12/12 15:11:59;;;;;;;4.97;1.92;;;18.00;54.00;;;;;;5027485;28;20036;-72
2021/12/12 15:15:43;;;;;;;3.50;1.90;;;17.50;55.60;;;;;;5029220;28;20048;-73
2021/12/12 15:18:50;;;;;;;3.28;2.58;;;17.20;55.30;;;;;;5025956;28;20069;-72
2021/12/12 15:22:06;;;;;;;3.92;2.80;;;16.90;55.50;;;;;;5028081;28;20056;-72
2021/12/12 15:25:20;;;;;;;3.88;3.03;;;16.40;56.60;;;;;;5029638;28;20705;-72
2021/12/12 15:28:30;;;;;;;4.90;3.35;;;15.80;56.80;;;;;;5028534;28;20048;-71
2021/12/12 15:31:44;;;;;;;13.20;6.93;;;15.10;58.70;;;;;;5029349;28;20041;-71
2021/12/12 15:35:13;;;;;;;8.75;4.90;;;14.00;60.30;;;;;;5029988;28;20056;-71
2021/12/12 15:38:23;;;;;;;6.07;3.63;;;13.00;62.90;;;;;;5030549;28;20113;-71
2021/12/12 15:41:37;;;;;;;5.85;3.83;;;12.00;63.80;;;;;;5032600;28;20053;-71
2021/12/12 15:44:47;;;;;;;10.20;5.25;;;11.30;65.40;;;;;;5029050;28;20044;-71
2021/12/12 15:47:52;;;;;;;14.40;8.77;;;10.70;67.00;;;;;;5030478;28;20503;-71
2021/12/12 15:51:05;;;;;;;16.63;10.10;;;10.30;67.50;;;;;;5033134;28;20141;-71
2021/12/12 15:54:29;;;;;;;8.07;5.82;;;9.90;68.60;;;;;;5032285;28;20053;-71
2021/12/12 15:57:37;;;;;;;15.25;10.77;;;9.60;69.60;;;;;;5032397;28;20046;-71
2021/12/12 16:00:47;;;;;;;8.68;7.78;;;9.30;70.50;;;;;;5033076;28;20053;-71
2021/12/12 16:03:55;;;;;;;10.02;7.55;;;9.10;72.10;;;;;;5029231;28;20041;-72
2021/12/12 16:07:06;;;;;;;18.27;9.07;;;8.80;74.80;;;;;;5032413;28;20064;-71
2021/12/12 16:10:19;;;;;;;10.30;7.13;;;8.50;77.20;;;;;;5023842;28;20048;-71
2021/12/12 16:13:42;;;;;;;7.63;5.10;;;8.20;78.70;;;;;;5032631;28;20380;-71
2021/12/12 16:16:50;;;;;;;15.32;9.93;;;7.90;79.10;;;;;;5027901;28;20037;-71
2021/12/12 16:20:02;;;;;;;7.22;5.57;;;7.80;79.70;;;;;;5030120;28;20065;-71
2021/12/12 16:23:16;;;;;;;9.57;4.25;;;7.60;80.70;;;;;;5032769;28;20041;-71
2021/12/12 16:26:30;;;;;;;5.93;4.10;;;7.50;81.40;;;;;;5030532;28;20042;-71
2021/12/12 16:29:45;;;;;;;7.85;4.47;;;7.40;81.80;;;;;;5026967;28;20071;-71
2021/12/12 16:32:53;;;;;;;9.20;6.32;;;7.30;82.00;;;;;;5032368;28;20049;-71
2021/12/12 16:35:58;;;;;;;8.18;5.32;;;7.20;83.20;;;;;;5030524;28;20033;-71
2021/12/12 16:39:13;;;;;;;8.32;5.57;;;7.10;82.20;;;;;;5030626;28;20048;-71
2021/12/12 16:42:25;;;;;;;16.50;11.07;;;7.00;82.60;;;;;;5025836;28;20042;-71
2021/12/12 16:45:36;;;;;;;70.50;36.97;;;7.00;81.70;;;;;;5032782;28;20111;-71
2021/12/12 16:48:46;;;;;;;19.60;12.77;;;6.90;82.10;;;;;;5027910;28;20163;-72
2021/12/12 16:52:00;;;;;;;98.40;54.92;;;6.90;80.10;;;;;;5029060;28;20049;-71
2021/12/12 16:55:12;;;;;;;46.00;31.25;;;6.90;80.20;;;;;;5031790;28;20048;-71
2021/12/12 16:58:21;;;;;;;16.20;12.90;;;6.90;80.40;;;;;;5030268;28;20049;-71
2021/12/12 17:01:36;;;;;;;10.82;7.57;;;6.90;80.00;;;;;;5025815;28;20032;-71
2021/12/12 17:04:45;;;;;;;15.23;7.10;;;6.90;80.20;;;;;;5028232;28;20056;-71
2021/12/12 17:07:52;;;;;;;50.60;26.73;;;6.90;79.30;;;;;;5031811;28;20060;-71
2021/12/12 17:11:01;;;;;;;7.13;3.90;;;6.70;76.70;;;;;;5030768;28;20048;-70